Time,TemperatureF,DewpointF,PressureIn,WindDirection,WindDirectionDegrees,WindSpeedMPH,WindSpeedGustMPH,Humidity,HourlyPrecipIn,Conditions,Clouds,dailyrainin,SoftwareType,DateUTC
2013-11-13 00:16:00,23.5,19.0,30.63,WNW,283,5.0,6.0,81,0.00,,,0.00,weatherlink.com 1.10,2013-11-13 05:16:00,
2013-11-13 00:31:00,23.3,18.0,30.63,WSW,248,3.0,5.0,81,0.00,,,0.00,weatherlink.com 1.10,2013-11-13 05:31:00,
2013-11-13 00:46:00,23.1,18.0,30.64,WSW,248,3.0,6.0,81,0.00,,,0.00,weatherlink.com 1.10,2013-11-13 05:46:00,
2013-11-13 01:01:00,23.1,18.0,30.63,SW,231,3.0,5.0,80,0.00,,,0.00,weatherlink.com 1.10,2013-11-13 06:01:00,
2013-11-13 01:16:00,22.9,18.0,30.63,West,259,2.0,6.0,81,0.00,,,0.00,weatherlink.com 1.10,2013-11-13 06:16:00,
2013-11-13 01:31:00,22.5,18.0,30.63,WSW,250,1.0,4.0,81,0.00,,,0.00,weatherlink.com 1.10,2013-11-13 06:31:00,
2013-11-13 01:46:00,22.3,18.0,30.62,WSW,254,2.0,3.0,82,0.00,,,0.00,weatherlink.com 1.10,2013-11-13 06:46:00,
2013-11-13 02:01:00,22.0,17.0,30.62,SW,228,3.0,3.0,82,0.00,,,0.00,weatherlink.com 1.10,2013-11-13 07:01:00,
2013-11-13 02:16:00,21.8,17.0,30.61,SW,230,2.0,3.0,82,0.00,,,0.00,weatherlink.com 1.10,2013-11-13 07:16:00,
2013-11-13 02:46:00,21.4,17.0,30.62,SW,224,1.0,2.0,83,0.00,,,0.00,weatherlink.com 1.10,2013-11-13 07:46:00,
2013-11-13 03:01:00,21.1,17.0,30.62,SW,215,1.0,2.0,83,0.00,,,0.00,weatherlink.com 1.10,2013-11-13 08:01:00,
2013-11-13 03:16:00,21.1,17.0,30.62,SW,235,3.0,4.0,84,0.00,,,0.00,weatherlink.com 1.10,2013-11-13 08:16:00,
2013-11-13 03:31:00,20.8,17.0,30.62,SW,231,2.0,4.0,84,0.00,,,0.00,weatherlink.com 1.10,2013-11-13 08:31:00,
2013-11-13 03:46:00,20.4,17.0,30.62,SW,228,1.0,3.0,85,0.00,,,0.00,weatherlink.com 1.10,2013-11-13 08:46:00,
2013-11-13 04:01:00,20.2,17.0,30.62,SW,236,3.0,3.0,86,0.00,,,0.00,weatherlink.com 1.10,2013-11-13 09:01:00,
2013-11-13 04:16:00,19.9,16.0,30.62,SW,226,4.0,4.0,86,0.00,,,0.00,weatherlink.com 1.10,2013-11-13 09:16:00,
2013-11-13 04:31:00,19.7,17.0,30.62,SW,228,3.0,5.0,87,0.00,,,0.00,weatherlink.com 1.10,2013-11-13 09:31:00,
2013-11-13 04:46:00,19.5,16.0,30.62,SW,225,2.0,3.0,87,0.00,,,0.00,weatherlink.com 1.10,2013-11-13 09:46:00,
2013-11-13 05:01:00,19.3,16.0,30.61,South,188,3.0,5.0,88,0.00,,,0.00,weatherlink.com 1.10,2013-11-13 10:01:00,
2013-11-13 05:16:00,19.2,16.0,30.61,SSW,210,2.0,8.0,88,0.00,,,0.00,weatherlink.com 1.10,2013-11-13 10:16:00,
2013-11-13 05:31:00,19.2,16.0,30.60,SW,214,5.0,8.0,88,0.00,,,0.00,weatherlink.com 1.10,2013-11-13 10:31:00,
2013-11-13 05:46:00,19.1,16.0,30.61,SSW,211,3.0,6.0,88,0.00,,,0.00,weatherlink.com 1.10,2013-11-13 10:46:00,
2013-11-13 06:01:00,19.1,16.0,30.61,SW,229,4.0,7.0,88,0.00,,,0.00,weatherlink.com 1.10,2013-11-13 11:01:00,
2013-11-13 06:16:00,19.1,16.0,30.60,SSW,210,5.0,7.0,88,0.00,,,0.00,weatherlink.com 1.10,2013-11-13 11:16:00,
2013-11-13 06:31:00,18.8,16.0,30.60,SW,235,3.0,5.0,88,0.00,,,0.00,weatherlink.com 1.10,2013-11-13 11:31:00,
2013-11-13 06:46:00,18.8,16.0,30.60,SSW,212,4.0,6.0,88,0.00,,,0.00,weatherlink.com 1.10,2013-11-13 11:46:00,
2013-11-13 07:02:00,18.8,16.0,30.60,SSW,204,4.0,6.0,87,0.00,,,0.00,weatherlink.com 1.10,2013-11-13 12:02:00,
2013-11-13 07:17:00,18.8,16.0,30.60,SSW,210,3.0,6.0,88,0.00,,,0.00,weatherlink.com 1.10,2013-11-13 12:17:00,
2013-11-13 07:33:00,18.8,16.0,30.61,SW,229,3.0,5.0,88,0.00,,,0.00,weatherlink.com 1.10,2013-11-13 12:33:00,
2013-11-13 07:47:00,18.7,16.0,30.61,SSW,200,3.0,7.0,88,0.00,,,0.00,weatherlink.com 1.10,2013-11-13 12:47:00,
2013-11-13 08:02:00,18.8,16.0,30.61,SW,226,4.0,9.0,88,0.00,,,0.00,weatherlink.com 1.10,2013-11-13 13:02:00,
2013-11-13 08:17:00,19.0,16.0,30.61,WSW,238,4.0,7.0,87,0.00,,,0.00,weatherlink.com 1.10,2013-11-13 13:17:00,
2013-11-13 08:32:00,19.6,16.0,30.61,SSW,213,4.0,9.0,87,0.00,,,0.00,weatherlink.com 1.10,2013-11-13 13:32:00,
2013-11-13 08:47:00,20.5,17.0,30.61,SW,230,6.0,8.0,85,0.00,,,0.00,weatherlink.com 1.10,2013-11-13 13:47:00,
2013-11-13 09:02:00,21.6,17.0,30.61,WSW,256,6.0,9.0,82,0.00,,,0.00,weatherlink.com 1.10,2013-11-13 14:02:00,
2013-11-13 09:17:00,22.7,17.0,30.61,SSW,203,5.0,9.0,80,0.00,,,0.00,weatherlink.com 1.10,2013-11-13 14:17:00,
2013-11-13 09:32:00,23.5,17.0,30.59,SW,235,8.0,12.0,77,0.00,,,0.00,weatherlink.com 1.10,2013-11-13 14:32:00,
2013-11-13 09:47:00,24.3,18.0,30.60,SW,226,4.0,10.0,76,0.00,,,0.00,weatherlink.com 1.10,2013-11-13 14:47:00,
2013-11-13 10:02:00,25.1,18.0,30.60,WSW,248,8.0,9.0,74,0.00,,,0.00,weatherlink.com 1.10,2013-11-13 15:02:00,
2013-11-13 10:17:00,25.5,18.0,30.59,SW,226,5.0,11.0,73,0.00,,,0.00,weatherlink.com 1.10,2013-11-13 15:17:00,
2013-11-13 10:32:00,26.4,19.0,30.59,South,191,4.0,11.0,73,0.00,,,0.00,weatherlink.com 1.10,2013-11-13 15:32:00,
2013-11-13 10:47:00,27.2,19.0,30.59,WSW,252,11.0,11.0,71,0.00,,,0.00,weatherlink.com 1.10,2013-11-13 15:47:00,
2013-11-13 11:02:00,27.8,18.0,30.58,WSW,250,6.0,13.0,67,0.00,,,0.00,weatherlink.com 1.10,2013-11-13 16:02:00,
2013-11-13 11:17:00,28.6,18.0,30.57,West,262,5.0,16.0,64,0.00,,,0.00,weatherlink.com 1.10,2013-11-13 16:17:00,
2013-11-13 11:32:00,29.4,18.0,30.57,SW,221,11.0,14.0,63,0.00,,,0.00,weatherlink.com 1.10,2013-11-13 16:32:00,
2013-11-13 11:47:00,29.9,19.0,30.56,SW,230,10.0,17.0,64,0.00,,,0.00,weatherlink.com 1.10,2013-11-13 16:47:00,
2013-11-13 12:02:00,30.2,20.0,30.55,SSW,194,18.0,18.0,66,0.00,,,0.00,weatherlink.com 1.10,2013-11-13 17:02:00,
2013-11-13 12:17:00,30.6,19.0,30.55,WSW,238,8.0,16.0,63,0.00,,,0.00,weatherlink.com 1.10,2013-11-13 17:17:00,
2013-11-13 12:32:00,31.2,19.0,30.54,South,186,14.0,15.0,60,0.00,,,0.00,weatherlink.com 1.10,2013-11-13 17:32:00,
2013-11-13 12:47:00,32.5,21.0,30.53,WSW,252,8.0,12.0,62,0.00,,,0.00,weatherlink.com 1.10,2013-11-13 17:47:00,
2013-11-13 13:03:00,32.8,20.0,30.52,SW,231,12.0,16.0,60,0.00,,,0.00,weatherlink.com 1.10,2013-11-13 18:03:00,
2013-11-13 13:18:00,32.8,19.0,30.51,SSE,155,16.0,17.0,57,0.00,,,0.00,weatherlink.com 1.10,2013-11-13 18:18:00,
2013-11-13 13:33:00,33.6,20.0,30.50,SW,221,7.0,20.0,57,0.00,,,0.00,weatherlink.com 1.10,2013-11-13 18:33:00,
2013-11-13 13:48:00,34.7,21.0,30.49,SW,214,7.0,17.0,57,0.00,,,0.00,weatherlink.com 1.10,2013-11-13 18:48:00,
2013-11-13 14:03:00,34.5,18.0,30.49,South,181,10.0,18.0,52,0.00,,,0.00,weatherlink.com 1.10,2013-11-13 19:03:00,
2013-11-13 14:18:00,34.8,18.0,30.48,WSW,243,9.0,20.0,51,0.00,,,0.00,weatherlink.com 1.10,2013-11-13 19:18:00,
2013-11-13 14:33:00,35.3,20.0,30.47,SSW,201,15.0,16.0,53,0.00,,,0.00,weatherlink.com 1.10,2013-11-13 19:33:00,
2013-11-13 14:48:00,35.6,18.0,30.47,SW,219,12.0,17.0,48,0.00,,,0.00,weatherlink.com 1.10,2013-11-13 19:48:00,
2013-11-13 15:03:00,36.3,19.0,30.46,WSW,242,10.0,12.0,50,0.00,,,0.00,weatherlink.com 1.10,2013-11-13 20:03:00,
2013-11-13 15:18:00,36.4,19.0,30.45,SSW,193,11.0,16.0,50,0.00,,,0.00,weatherlink.com 1.10,2013-11-13 20:18:00,
2013-11-13 15:33:00,36.5,19.0,30.45,South,172,11.0,16.0,50,0.00,,,0.00,weatherlink.com 1.10,2013-11-13 20:33:00,
2013-11-13 15:48:00,36.7,20.0,30.44,SSE,166,14.0,17.0,50,0.00,,,0.00,weatherlink.com 1.10,2013-11-13 20:48:00,
2013-11-13 16:03:00,36.7,19.0,30.44,South,174,11.0,15.0,49,0.00,,,0.00,weatherlink.com 1.10,2013-11-13 21:03:00,
2013-11-13 16:18:00,36.3,20.0,30.43,South,176,9.0,17.0,51,0.00,,,0.00,weatherlink.com 1.10,2013-11-13 21:18:00,
2013-11-13 16:33:00,36.3,20.0,30.43,SSW,210,9.0,18.0,51,0.00,,,0.00,weatherlink.com 1.10,2013-11-13 21:33:00,
2013-11-13 17:03:00,35.4,21.0,30.42,SSW,204,9.0,15.0,57,0.00,,,0.00,weatherlink.com 1.10,2013-11-13 22:03:00,
2013-11-13 17:18:00,34.7,21.0,30.42,SSW,193,9.0,13.0,57,0.00,,,0.00,weatherlink.com 1.10,2013-11-13 22:18:00,
2013-11-13 17:34:00,33.9,20.0,30.41,SW,228,10.0,12.0,58,0.00,,,0.00,weatherlink.com 1.10,2013-11-13 22:34:00,
2013-11-13 17:48:00,33.7,20.0,30.41,South,179,9.0,14.0,58,0.00,,,0.00,weatherlink.com 1.10,2013-11-13 22:48:00,
2013-11-13 18:03:00,33.3,20.0,30.41,SSW,195,5.0,12.0,59,0.00,,,0.00,weatherlink.com 1.10,2013-11-13 23:03:00,
2013-11-13 18:18:00,32.8,21.0,30.40,SSW,193,5.0,9.0,61,0.00,,,0.00,weatherlink.com 1.10,2013-11-13 23:18:00,
2013-11-13 18:33:00,32.5,21.0,30.40,SSE,150,6.0,11.0,62,0.00,,,0.00,weatherlink.com 1.10,2013-11-13 23:33:00,
2013-11-13 18:48:00,32.2,21.0,30.40,SSW,201,7.0,10.0,64,0.00,,,0.00,weatherlink.com 1.10,2013-11-13 23:48:00,
2013-11-13 19:03:00,31.9,21.0,30.39,SSW,203,5.0,11.0,65,0.00,,,0.00,weatherlink.com 1.10,2013-11-14 00:03:00,
2013-11-13 19:18:00,32.0,21.0,30.39,SSW,197,8.0,16.0,65,0.00,,,0.00,weatherlink.com 1.10,2013-11-14 00:18:00,
2013-11-13 19:33:00,32.1,21.0,30.38,SE,136,8.0,16.0,64,0.00,,,0.00,weatherlink.com 1.10,2013-11-14 00:33:00,
2013-11-13 19:48:00,32.2,21.0,30.37,South,191,12.0,17.0,63,0.00,,,0.00,weatherlink.com 1.10,2013-11-14 00:48:00,
2013-11-13 20:03:00,32.2,21.0,30.37,SSE,157,9.0,16.0,63,0.00,,,0.00,weatherlink.com 1.10,2013-11-14 01:03:00,
2013-11-13 20:18:00,32.1,21.0,30.36,SW,214,15.0,16.0,63,0.00,,,0.00,weatherlink.com 1.10,2013-11-14 01:18:00,
2013-11-13 20:33:00,32.0,21.0,30.36,SSW,193,8.0,17.0,63,0.00,,,0.00,weatherlink.com 1.10,2013-11-14 01:33:00,
2013-11-13 20:48:00,31.9,20.0,30.36,SSW,205,14.0,22.0,63,0.00,,,0.00,weatherlink.com 1.10,2013-11-14 01:48:00,
2013-11-13 21:03:00,31.8,20.0,30.35,SSW,203,7.0,15.0,63,0.00,,,0.00,weatherlink.com 1.10,2013-11-14 02:03:00,
2013-11-13 21:18:00,31.7,20.0,30.36,South,187,7.0,17.0,63,0.00,,,0.00,weatherlink.com 1.10,2013-11-14 02:18:00,
2013-11-13 21:33:00,31.6,20.0,30.35,SSW,200,8.0,19.0,63,0.00,,,0.00,weatherlink.com 1.10,2013-11-14 02:33:00,
2013-11-13 21:48:00,31.6,20.0,30.34,SSW,212,12.0,19.0,63,0.00,,,0.00,weatherlink.com 1.10,2013-11-14 02:48:00,
2013-11-13 22:03:00,31.6,20.0,30.34,SSW,212,11.0,20.0,63,0.00,,,0.00,weatherlink.com 1.10,2013-11-14 03:03:00,
2013-11-13 22:19:00,31.4,20.0,30.33,SSW,194,9.0,18.0,64,0.00,,,0.00,weatherlink.com 1.10,2013-11-14 03:19:00,
2013-11-13 22:34:00,31.2,20.0,30.33,SSW,204,11.0,16.0,64,0.00,,,0.00,weatherlink.com 1.10,2013-11-14 03:34:00,
2013-11-13 23:04:00,31.0,20.0,30.32,SSW,203,11.0,15.0,65,0.00,,,0.00,weatherlink.com 1.10,2013-11-14 04:04:00,
2013-11-13 23:19:00,31.3,20.0,30.32,SSW,207,10.0,20.0,64,0.00,,,0.00,weatherlink.com 1.10,2013-11-14 04:19:00,
2013-11-13 23:34:00,31.2,20.0,30.31,SSW,197,4.0,19.0,64,0.00,,,0.00,weatherlink.com 1.10,2013-11-14 04:34:00,
2013-11-13 23:49:00,31.2,20.0,30.31,SSW,212,14.0,16.0,64,0.00,,,0.00,weatherlink.com 1.10,2013-11-14 04:49:00,